Terminal Aerodrome Forecast
Issued by NWS

Home | Current Version | Previous Version | Text Only | Print | Product List | Glossary On
Versions: 1 2 3 4 5 6 7 8 9 10 11 12 13 14 15 16 17 18 19 20 21 22 23
000
FTUS43 KDLH 290300 AAA
TAFHYR
TAF AMD
KHYR 290355Z 2904/2924 VRB02KT 1SM -FZDZSN BR OVC005
     FM290700 30009KT 3SM -FZDZSN BR OVC007
     FM291300 32012G22KT 5SM -SN BLSN BKN011 OVC022
     FM292100 33011KT P6SM -SN OVC018=

USA.gov is the U.S. government's official web portal to all federal, state and local government web resources and services.